• Join FlightAware (Why Join?)
  • Login
  • US Flag 
Rudolph Flight #1: Arrived! 
06:30AM EST


 

Airport Tracker/Info


-or-


 

Live Flight TrackerFlight Track Log ✈ EJA982 ✈ 02-May-2013 ✈ KSNA - KSAN

Flight Track Log - Related Links

Times and Time Zones

All times are in EDT time to prevent confusion due to time zone crossing. See the EJA982 flight status page for this flight to view local times or setup timezone preferences in your user account.

Time Position Orientation Groundspeed Altitude Reporting Facility
EDT Latitude Longitude Course Direction KTS MPH feet Rate Location/Type
11:43AM 33.7167 -117.8500 90° East 183 211 3,900  Level Southern California TRACON
11:44AM 33.7167 -117.7833 90° East 225 259 7,000 3,120 Climbing Southern California TRACON
11:45AM 33.6500 -117.7667 168° South 256 295 10,200 1,980 Climbing Southern California TRACON
11:46AM 33.5667 -117.7333 162° South 319 367 11,000 360 Climbing Southern California TRACON
11:47AM 33.5000 -117.6833 148° Southeast 351 404 11,000  Level Southern California TRACON
11:48AM 33.4167 -117.6333 153° Southeast 349 402 11,000  Level Southern California TRACON
11:49AM 33.3333 -117.5667 146° Southeast 340 391 11,000  Level Southern California TRACON
11:50AM 33.2500 -117.5167 153° Southeast 340 391 11,000  Level Southern California TRACON
11:51AM 33.1833 -117.4500 140° Southeast 341 392 11,000  Level Southern California TRACON
11:52AM 33.1000 -117.4000 153° Southeast 336 387 11,000 -300 Level Southern California TRACON
11:53AM 33.0000 -117.3500 157° South 293 337 10,400 -1,200 Descending Southern California TRACON
11:54AM 32.9333 -117.3167 157° South 299 344 8,700 -1,800 Descending Southern California TRACON
11:55AM 32.8597 -117.2383 138° Southeast 295 339 6,500 -1,620 Descending Los Angeles Center
11:56AM 32.7969 -117.1883 146° Southeast 275 316 5,000 -780 Descending Los Angeles Center
11:57AM 32.7653 -117.1272 122° Southeast 250 288 4,900 -600 Descending Los Angeles Center
11:58AM 32.7500 -117.0667 107° East 224 258 4,000 -1,500 Descending Southern California TRACON
11:59AM 32.7167 -117.0500 157° South 215 247 2,400 -1,200 Descending Southern California TRACON
12:00PM 32.7167 -117.1167 270° West 155 178 1,600 -960 Descending Southern California TRACON
12:00PM 32.7183 -117.1297 279° West 159 183 1,100 -900 Descending Los Angeles Center
12:01PM 32.7281 -117.1692 286° West 135 155 300 -540 Descending Los Angeles Center
12:02PM 32.7381 -117.2089 287° West 133 153 100 -240 Descending Los Angeles Center